sensor_id;sensor_type;location;lat;lon;timestamp;pressure;altitude;pressure_sealevel;temperature;humidity
46756;BME280;32506;52.826;-1.192;2024-01-25T00:01:19;102224.38;;;4.01;60.69
46756;BME280;32506;52.826;-1.192;2024-01-25T00:03:45;102232.31;;;4.01;60.96
46756;BME280;32506;52.826;-1.192;2024-01-25T00:06:10;102235.25;;;3.98;60.72
46756;BME280;32506;52.826;-1.192;2024-01-25T00:08:36;102231.91;;;3.96;60.50
46756;BME280;32506;52.826;-1.192;2024-01-25T00:11:02;102224.06;;;3.95;60.42
46756;BME280;32506;52.826;-1.192;2024-01-25T00:13:28;102218.09;;;3.93;60.78
46756;BME280;32506;52.826;-1.192;2024-01-25T00:15:53;102211.09;;;3.92;60.75
46756;BME280;32506;52.826;-1.192;2024-01-25T00:18:19;102207.75;;;3.90;60.42
46756;BME280;32506;52.826;-1.192;2024-01-25T00:20:45;102221.94;;;3.89;61.03
46756;BME280;32506;52.826;-1.192;2024-01-25T00:23:11;102223.03;;;3.86;60.97
46756;BME280;32506;52.826;-1.192;2024-01-25T00:25:36;102239.06;;;3.84;60.72
46756;BME280;32506;52.826;-1.192;2024-01-25T00:28:02;102225.22;;;3.81;60.97
46756;BME280;32506;52.826;-1.192;2024-01-25T00:30:28;102215.75;;;3.78;60.33
46756;BME280;32506;52.826;-1.192;2024-01-25T00:32:53;102210.59;;;3.77;60.58
46756;BME280;32506;52.826;-1.192;2024-01-25T00:35:19;102210.72;;;3.75;60.56
46756;BME280;32506;52.826;-1.192;2024-01-25T00:37:44;102210.97;;;3.72;60.20
46756;BME280;32506;52.826;-1.192;2024-01-25T00:40:10;102199.69;;;3.70;60.14
46756;BME280;32506;52.826;-1.192;2024-01-25T00:42:43;102200.78;;;3.67;60.68
46756;BME280;32506;52.826;-1.192;2024-01-25T00:45:10;102199.22;;;3.65;60.28
46756;BME280;32506;52.826;-1.192;2024-01-25T00:47:36;102195.75;;;3.64;60.17
46756;BME280;32506;52.826;-1.192;2024-01-25T00:50:02;102200.31;;;3.62;60.54
46756;BME280;32506;52.826;-1.192;2024-01-25T00:52:27;102195.28;;;3.59;60.29
46756;BME280;32506;52.826;-1.192;2024-01-25T00:54:53;102192.78;;;3.58;60.50
46756;BME280;32506;52.826;-1.192;2024-01-25T00:57:19;102202.63;;;3.56;60.58
46756;BME280;32506;52.826;-1.192;2024-01-25T00:59:45;102199.28;;;3.53;60.36
46756;BME280;32506;52.826;-1.192;2024-01-25T01:02:12;102203.84;;;3.51;60.37
46756;BME280;32506;52.826;-1.192;2024-01-25T01:04:38;102211.06;;;3.49;60.59
46756;BME280;32506;52.826;-1.192;2024-01-25T01:07:04;102210.22;;;3.49;60.44
46756;BME280;32506;52.826;-1.192;2024-01-25T01:09:30;102198.94;;;3.47;60.73
46756;BME280;32506;52.826;-1.192;2024-01-25T01:11:55;102183.22;;;3.45;60.90
46756;BME280;32506;52.826;-1.192;2024-01-25T01:14:21;102178.03;;;3.44;60.86
46756;BME280;32506;52.826;-1.192;2024-01-25T01:16:46;102171.91;;;3.43;60.64
46756;BME280;32506;52.826;-1.192;2024-01-25T01:19:12;102179.03;;;3.43;60.91
46756;BME280;32506;52.826;-1.192;2024-01-25T01:21:37;102168.56;;;3.41;60.83
46756;BME280;32506;52.826;-1.192;2024-01-25T01:24:04;102157.16;;;3.41;61.13
46756;BME280;32506;52.826;-1.192;2024-01-25T01:26:39;102153.69;;;3.40;61.07
46756;BME280;32506;52.826;-1.192;2024-01-25T01:29:07;102146.72;;;3.39;61.18
46756;BME280;32506;52.826;-1.192;2024-01-25T01:31:33;102140.59;;;3.39;61.19
46756;BME280;32506;52.826;-1.192;2024-01-25T01:33:59;102131.81;;;3.38;61.37
46756;BME280;32506;52.826;-1.192;2024-01-25T01:36:24;102128.19;;;3.39;61.72
46756;BME280;32506;52.826;-1.192;2024-01-25T01:38:50;102130.84;;;3.39;61.88
46756;BME280;32506;52.826;-1.192;2024-01-25T01:41:15;102124.59;;;3.40;62.26
46756;BME280;32506;52.826;-1.192;2024-01-25T01:43:41;102121.97;;;3.40;62.49
46756;BME280;32506;52.826;-1.192;2024-01-25T01:46:24;102122.78;;;3.41;62.95
46756;BME280;32506;52.826;-1.192;2024-01-25T01:48:54;102121.00;;;3.41;62.91
46756;BME280;32506;52.826;-1.192;2024-01-25T01:51:19;102122.66;;;3.42;62.89
46756;BME280;32506;52.826;-1.192;2024-01-25T01:53:45;102118.22;;;3.43;63.02
46756;BME280;32506;52.826;-1.192;2024-01-25T01:56:11;102123.50;;;3.43;63.15
46756;BME280;32506;52.826;-1.192;2024-01-25T01:58:38;102119.88;;;3.44;62.78
46756;BME280;32506;52.826;-1.192;2024-01-25T02:01:04;102125.16;;;3.44;62.71
46756;BME280;32506;52.826;-1.192;2024-01-25T02:03:30;102126.03;;;3.44;63.10
46756;BME280;32506;52.826;-1.192;2024-01-25T02:05:55;102127.72;;;3.45;63.54
46756;BME280;32506;52.826;-1.192;2024-01-25T02:08:21;102122.41;;;3.45;63.23
46756;BME280;32506;52.826;-1.192;2024-01-25T02:10:46;102122.28;;;3.47;63.17
46756;BME280;32506;52.826;-1.192;2024-01-25T02:13:12;102117.00;;;3.47;63.81
46756;BME280;32506;52.826;-1.192;2024-01-25T02:15:37;102110.75;;;3.48;63.80
46756;BME280;32506;52.826;-1.192;2024-01-25T02:18:03;102096.69;;;3.47;63.41
46756;BME280;32506;52.826;-1.192;2024-01-25T02:20:28;102094.88;;;3.48;63.56
46756;BME280;32506;52.826;-1.192;2024-01-25T02:22:54;102086.97;;;3.48;63.41
46756;BME280;32506;52.826;-1.192;2024-01-25T02:25:19;102090.44;;;3.48;63.05
46756;BME280;32506;52.826;-1.192;2024-01-25T02:27:45;102094.75;;;3.49;63.40
46756;BME280;32506;52.826;-1.192;2024-01-25T02:30:10;102095.72;;;3.48;63.23
46756;BME280;32506;52.826;-1.192;2024-01-25T02:32:36;102097.41;;;3.49;63.72
46756;BME280;32506;52.826;-1.192;2024-01-25T02:35:01;102101.69;;;3.50;63.68
46756;BME280;32506;52.826;-1.192;2024-01-25T02:37:27;102103.38;;;3.51;64.08
46756;BME280;32506;52.826;-1.192;2024-01-25T02:39:53;102103.38;;;3.51;63.90
46756;BME280;32506;52.826;-1.192;2024-01-25T02:42:18;102106.88;;;3.52;63.65
46756;BME280;32506;52.826;-1.192;2024-01-25T02:44:44;102088.25;;;3.53;63.73
46756;BME280;32506;52.826;-1.192;2024-01-25T02:47:09;102068.88;;;3.53;63.72
46756;BME280;32506;52.826;-1.192;2024-01-25T02:49:35;102068.78;;;3.55;64.00
46756;BME280;32506;52.826;-1.192;2024-01-25T02:52:00;102062.50;;;3.56;64.19
46756;BME280;32506;52.826;-1.192;2024-01-25T02:54:26;102049.41;;;3.54;64.58
46756;BME280;32506;52.826;-1.192;2024-01-25T02:56:52;102053.59;;;3.57;64.60
46756;BME280;32506;52.826;-1.192;2024-01-25T02:59:17;102050.00;;;3.58;64.92
46756;BME280;32506;52.826;-1.192;2024-01-25T03:01:43;102042.91;;;3.58;64.75
46756;BME280;32506;52.826;-1.192;2024-01-25T03:04:10;102043.75;;;3.59;64.80
46756;BME280;32506;52.826;-1.192;2024-01-25T03:06:35;102044.56;;;3.59;64.57
46756;BME280;32506;52.826;-1.192;2024-01-25T03:09:01;102047.94;;;3.61;64.63
46756;BME280;32506;52.826;-1.192;2024-01-25T03:11:26;102038.19;;;3.62;65.20
46756;BME280;32506;52.826;-1.192;2024-01-25T03:13:52;102034.72;;;3.61;65.14
46756;BME280;32506;52.826;-1.192;2024-01-25T03:16:17;102039.00;;;3.62;64.88
46756;BME280;32506;52.826;-1.192;2024-01-25T03:18:43;102028.31;;;3.64;64.94
46756;BME280;32506;52.826;-1.192;2024-01-25T03:21:08;102023.75;;;3.66;65.42
46756;BME280;32506;52.826;-1.192;2024-01-25T03:23:33;102022.91;;;3.65;65.13
46756;BME280;32506;52.826;-1.192;2024-01-25T03:26:01;102036.69;;;3.69;65.64
46756;BME280;32506;52.826;-1.192;2024-01-25T03:28:27;102035.72;;;3.70;65.83
46756;BME280;32506;52.826;-1.192;2024-01-25T03:30:52;102032.94;;;3.72;65.56
46756;BME280;32506;52.826;-1.192;2024-01-25T03:33:18;102028.38;;;3.74;65.47
46756;BME280;32506;52.826;-1.192;2024-01-25T03:35:43;102030.88;;;3.75;65.92
46756;BME280;32506;52.826;-1.192;2024-01-25T03:38:08;102036.84;;;3.77;66.33
46756;BME280;32506;52.826;-1.192;2024-01-25T03:40:34;102027.81;;;3.80;66.37
46756;BME280;32506;52.826;-1.192;2024-01-25T03:42:59;102037.44;;;3.81;66.80
46756;BME280;32506;52.826;-1.192;2024-01-25T03:45:25;102038.16;;;3.83;67.23
46756;BME280;32506;52.826;-1.192;2024-01-25T03:47:50;102029.94;;;3.86;66.94
46756;BME280;32506;52.826;-1.192;2024-01-25T03:50:16;102029.81;;;3.88;66.97
46756;BME280;32506;52.826;-1.192;2024-01-25T03:52:41;102026.06;;;3.90;67.38
46756;BME280;32506;52.826;-1.192;2024-01-25T03:55:07;102025.94;;;3.92;67.31
46756;BME280;32506;52.826;-1.192;2024-01-25T03:57:32;102019.53;;;3.94;67.45
46756;BME280;32506;52.826;-1.192;2024-01-25T03:59:58;102020.25;;;3.96;67.32
46756;BME280;32506;52.826;-1.192;2024-01-25T04:02:23;102014.69;;;3.99;67.12
46756;BME280;32506;52.826;-1.192;2024-01-25T04:04:48;102015.50;;;4.00;67.01
46756;BME280;32506;52.826;-1.192;2024-01-25T04:07:15;102007.31;;;4.03;67.27
46756;BME280;32506;52.826;-1.192;2024-01-25T04:09:40;102006.22;;;4.06;67.71
46756;BME280;32506;52.826;-1.192;2024-01-25T04:12:06;101991.84;;;4.08;67.26
46756;BME280;32506;52.826;-1.192;2024-01-25T04:14:31;101989.09;;;4.10;67.07
46756;BME280;32506;52.826;-1.192;2024-01-25T04:16:57;101991.59;;;4.11;66.92
46756;BME280;32506;52.826;-1.192;2024-01-25T04:19:22;101999.41;;;4.13;67.39
46756;BME280;32506;52.826;-1.192;2024-01-25T04:21:47;102000.94;;;4.15;66.79
46756;BME280;32506;52.826;-1.192;2024-01-25T04:24:13;102002.50;;;4.18;67.43
46756;BME280;32506;52.826;-1.192;2024-01-25T04:26:38;102004.03;;;4.20;67.68
46756;BME280;32506;52.826;-1.192;2024-01-25T04:29:04;102002.78;;;4.25;67.83
46756;BME280;32506;52.826;-1.192;2024-01-25T04:31:31;102004.47;;;4.26;67.08
46756;BME280;32506;52.826;-1.192;2024-01-25T04:33:56;102000.56;;;4.30;67.56
46756;BME280;32506;52.826;-1.192;2024-01-25T04:36:22;101996.78;;;4.32;67.41
46756;BME280;32506;52.826;-1.192;2024-01-25T04:38:47;101973.69;;;4.34;68.54
46756;BME280;32506;52.826;-1.192;2024-01-25T04:41:13;101962.81;;;4.37;68.38
46756;BME280;32506;52.826;-1.192;2024-01-25T04:43:38;101957.25;;;4.41;68.02
46756;BME280;32506;52.826;-1.192;2024-01-25T04:46:04;101949.16;;;4.42;68.59
46756;BME280;32506;52.826;-1.192;2024-01-25T04:48:30;101948.06;;;4.45;69.42
46756;BME280;32506;52.826;-1.192;2024-01-25T04:50:58;101950.28;;;4.49;69.43
46756;BME280;32506;52.826;-1.192;2024-01-25T04:53:24;101943.88;;;4.52;69.36
46756;BME280;32506;52.826;-1.192;2024-01-25T04:55:50;101948.06;;;4.54;70.04
46756;BME280;32506;52.826;-1.192;2024-01-25T04:58:15;101949.44;;;4.59;69.54
46756;BME280;32506;52.826;-1.192;2024-01-25T05:00:41;101940.38;;;4.61;69.90
46756;BME280;32506;52.826;-1.192;2024-01-25T05:03:06;101943.59;;;4.65;70.36
46756;BME280;32506;52.826;-1.192;2024-01-25T05:05:32;101935.50;;;4.66;69.44
46756;BME280;32506;52.826;-1.192;2024-01-25T05:07:57;101923.81;;;4.69;69.60
46756;BME280;32506;52.826;-1.192;2024-01-25T05:10:22;101930.63;;;4.72;68.92
46756;BME280;32506;52.826;-1.192;2024-01-25T05:12:50;101913.63;;;4.74;68.66
46756;BME280;32506;52.826;-1.192;2024-01-25T05:15:16;101911.50;;;4.78;69.31
46756;BME280;32506;52.826;-1.192;2024-01-25T05:17:42;101904.25;;;4.80;69.25
46756;BME280;32506;52.826;-1.192;2024-01-25T05:20:07;101900.50;;;4.82;68.90
46756;BME280;32506;52.826;-1.192;2024-01-25T05:22:33;101911.63;;;4.86;69.11
46756;BME280;32506;52.826;-1.192;2024-01-25T05:25:05;101898.13;;;4.89;70.12
46756;BME280;32506;52.826;-1.192;2024-01-25T05:27:31;101894.34;;;4.92;69.85
46756;BME280;32506;52.826;-1.192;2024-01-25T05:29:56;101888.75;;;4.95;70.53
46756;BME280;32506;52.826;-1.192;2024-01-25T05:32:22;101882.47;;;4.96;70.23
46756;BME280;32506;52.826;-1.192;2024-01-25T05:34:47;101883.16;;;4.98;69.80
46756;BME280;32506;52.826;-1.192;2024-01-25T05:37:13;101879.25;;;5.02;69.67
46756;BME280;32506;52.826;-1.192;2024-01-25T05:39:38;101882.59;;;5.04;69.85
46756;BME280;32506;52.826;-1.192;2024-01-25T05:42:04;101881.31;;;5.08;69.23
46756;BME280;32506;52.826;-1.192;2024-01-25T05:44:29;101888.16;;;5.11;70.23
46756;BME280;32506;52.826;-1.192;2024-01-25T05:46:55;101888.00;;;5.12;70.38
46756;BME280;32506;52.826;-1.192;2024-01-25T05:49:21;101878.94;;;5.15;70.03
46756;BME280;32506;52.826;-1.192;2024-01-25T05:51:46;101873.31;;;5.18;69.82
46756;BME280;32506;52.826;-1.192;2024-01-25T05:54:11;101870.53;;;5.19;69.24
46756;BME280;32506;52.826;-1.192;2024-01-25T05:56:37;101861.44;;;5.22;70.35
46756;BME280;32506;52.826;-1.192;2024-01-25T05:59:02;101862.16;;;5.24;70.12
46756;BME280;32506;52.826;-1.192;2024-01-25T06:01:28;101854.88;;;5.26;70.43
46756;BME280;32506;52.826;-1.192;2024-01-25T06:03:53;101856.41;;;5.29;70.03
46756;BME280;32506;52.826;-1.192;2024-01-25T06:06:18;101858.78;;;5.32;70.05
46756;BME280;32506;52.826;-1.192;2024-01-25T06:08:44;101860.16;;;5.36;70.45
46756;BME280;32506;52.826;-1.192;2024-01-25T06:11:09;101866.28;;;5.36;69.89
46756;BME280;32506;52.826;-1.192;2024-01-25T06:13:35;101857.19;;;5.39;70.45
46756;BME280;32506;52.826;-1.192;2024-01-25T06:16:00;101870.16;;;5.42;70.25
46756;BME280;32506;52.826;-1.192;2024-01-25T06:18:26;101873.50;;;5.44;69.91
46756;BME280;32506;52.826;-1.192;2024-01-25T06:20:52;101873.19;;;5.47;70.55
46756;BME280;32506;52.826;-1.192;2024-01-25T06:23:17;101873.91;;;5.49;70.48
46756;BME280;32506;52.826;-1.192;2024-01-25T06:25:43;101871.09;;;5.51;70.28
46756;BME280;32506;52.826;-1.192;2024-01-25T06:28:08;101881.56;;;5.52;70.13
46756;BME280;32506;52.826;-1.192;2024-01-25T06:30:34;101875.78;;;5.57;71.07
46756;BME280;32506;52.826;-1.192;2024-01-25T06:32:59;101869.50;;;5.58;70.61
46756;BME280;32506;52.826;-1.192;2024-01-25T06:35:25;101865.72;;;5.61;69.57
46756;BME280;32506;52.826;-1.192;2024-01-25T06:37:50;101860.13;;;5.64;69.86
46756;BME280;32506;52.826;-1.192;2024-01-25T06:40:16;101857.34;;;5.65;70.41
46756;BME280;32506;52.826;-1.192;2024-01-25T06:42:42;101852.72;;;5.67;69.65
46756;BME280;32506;52.826;-1.192;2024-01-25T06:45:08;101854.38;;;5.68;70.07
46756;BME280;32506;52.826;-1.192;2024-01-25T06:47:34;101858.56;;;5.71;69.79
46756;BME280;32506;52.826;-1.192;2024-01-25T06:49:59;101856.59;;;5.73;69.95
46756;BME280;32506;52.826;-1.192;2024-01-25T06:52:25;101840.50;;;5.75;69.58
46756;BME280;32506;52.826;-1.192;2024-01-25T06:54:50;101843.84;;;5.77;69.64
46756;BME280;32506;52.826;-1.192;2024-01-25T06:57:16;101834.91;;;5.78;69.59
46756;BME280;32506;52.826;-1.192;2024-01-25T06:59:42;101832.78;;;5.81;69.37
46756;BME280;32506;52.826;-1.192;2024-01-25T07:02:07;101827.47;;;5.81;70.10
46756;BME280;32506;52.826;-1.192;2024-01-25T07:04:32;101822.88;;;5.83;69.79
46756;BME280;32506;52.826;-1.192;2024-01-25T07:06:58;101825.38;;;5.85;69.39
46756;BME280;32506;52.826;-1.192;2024-01-25T07:09:25;101824.22;;;5.87;69.78
46756;BME280;32506;52.826;-1.192;2024-01-25T07:11:50;101807.34;;;5.88;69.53
46756;BME280;32506;52.826;-1.192;2024-01-25T07:14:16;101811.50;;;5.91;69.74
46756;BME280;32506;52.826;-1.192;2024-01-25T07:16:41;101800.72;;;5.93;69.11
46756;BME280;32506;52.826;-1.192;2024-01-25T07:19:07;101803.06;;;5.96;69.66
46756;BME280;32506;52.826;-1.192;2024-01-25T07:21:32;101794.13;;;5.97;70.42
46756;BME280;32506;52.826;-1.192;2024-01-25T07:24:02;101790.53;;;5.98;69.36
46756;BME280;32506;52.826;-1.192;2024-01-25T07:26:29;101784.09;;;6.00;70.69
46756;BME280;32506;52.826;-1.192;2024-01-25T07:28:55;101779.59;;;6.01;70.18
46756;BME280;32506;52.826;-1.192;2024-01-25T07:31:26;101773.16;;;6.03;70.88
46756;BME280;32506;52.826;-1.192;2024-01-25T07:33:52;101767.84;;;6.03;70.29
46756;BME280;32506;52.826;-1.192;2024-01-25T07:36:18;101773.69;;;6.07;71.02
46756;BME280;32506;52.826;-1.192;2024-01-25T07:38:44;101771.03;;;6.07;71.38
46756;BME280;32506;52.826;-1.192;2024-01-25T07:41:12;101777.88;;;6.10;71.78
46756;BME280;32506;52.826;-1.192;2024-01-25T07:43:37;101771.38;;;6.12;70.98
46756;BME280;32506;52.826;-1.192;2024-01-25T07:46:03;101773.06;;;6.13;70.49
46756;BME280;32506;52.826;-1.192;2024-01-25T07:48:28;101769.41;;;6.14;71.69
46756;BME280;32506;52.826;-1.192;2024-01-25T07:50:53;101761.31;;;6.16;70.86
46756;BME280;32506;52.826;-1.192;2024-01-25T07:53:19;101759.34;;;6.18;71.12
46756;BME280;32506;52.826;-1.192;2024-01-25T07:55:44;101751.88;;;6.21;72.28
46756;BME280;32506;52.826;-1.192;2024-01-25T07:58:10;101765.16;;;6.21;72.44
46756;BME280;32506;52.826;-1.192;2024-01-25T08:00:36;101760.53;;;6.24;71.61
46756;BME280;32506;52.826;-1.192;2024-01-25T08:03:02;101755.88;;;6.26;73.09
46756;BME280;32506;52.826;-1.192;2024-01-25T08:05:28;101749.44;;;6.28;73.41
46756;BME280;32506;52.826;-1.192;2024-01-25T08:07:53;101743.13;;;6.29;73.77
46756;BME280;32506;52.826;-1.192;2024-01-25T08:10:19;101742.00;;;6.32;73.80
46756;BME280;32506;52.826;-1.192;2024-01-25T08:12:44;101746.31;;;6.33;73.55
46756;BME280;32506;52.826;-1.192;2024-01-25T08:15:12;101738.03;;;6.36;74.29
46756;BME280;32506;52.826;-1.192;2024-01-25T08:17:38;101735.22;;;6.37;73.91
46756;BME280;32506;52.826;-1.192;2024-01-25T08:20:04;101731.44;;;6.40;74.63
46756;BME280;32506;52.826;-1.192;2024-01-25T08:22:31;101739.22;;;6.42;75.20
46756;BME280;32506;52.826;-1.192;2024-01-25T08:24:57;101735.44;;;6.44;75.43
46756;BME280;32506;52.826;-1.192;2024-01-25T08:27:22;101730.81;;;6.46;75.20
46756;BME280;32506;52.826;-1.192;2024-01-25T08:29:48;101737.63;;;6.49;75.35
46756;BME280;32506;52.826;-1.192;2024-01-25T08:32:13;101736.47;;;6.51;74.97
46756;BME280;32506;52.826;-1.192;2024-01-25T08:34:39;101731.84;;;6.53;75.10
46756;BME280;32506;52.826;-1.192;2024-01-25T08:37:04;101738.50;;;6.58;75.62
46756;BME280;32506;52.826;-1.192;2024-01-25T08:39:30;101736.69;;;6.58;74.99
46756;BME280;32506;52.826;-1.192;2024-01-25T08:41:56;101726.41;;;6.63;75.04
46756;BME280;32506;52.826;-1.192;2024-01-25T08:44:25;101720.09;;;6.64;75.51
46756;BME280;32506;52.826;-1.192;2024-01-25T08:46:51;101717.16;;;6.67;75.94
46756;BME280;32506;52.826;-1.192;2024-01-25T08:49:16;101708.84;;;6.70;76.11
46756;BME280;32506;52.826;-1.192;2024-01-25T08:51:42;101720.13;;;6.72;76.01
46756;BME280;32506;52.826;-1.192;2024-01-25T08:54:07;101709.22;;;6.76;76.29
46756;BME280;32506;52.826;-1.192;2024-01-25T08:56:34;101707.03;;;6.79;76.23
46756;BME280;32506;52.826;-1.192;2024-01-25T08:58:59;101703.22;;;6.82;76.31
46756;BME280;32506;52.826;-1.192;2024-01-25T09:01:25;101694.97;;;6.85;76.74
46756;BME280;32506;52.826;-1.192;2024-01-25T09:03:50;101714.06;;;6.88;76.78
46756;BME280;32506;52.826;-1.192;2024-01-25T09:06:16;101705.78;;;6.92;77.30
46756;BME280;32506;52.826;-1.192;2024-01-25T09:08:42;101705.44;;;6.95;77.56
46756;BME280;32506;52.826;-1.192;2024-01-25T09:11:07;101697.16;;;6.98;77.35
46756;BME280;32506;52.826;-1.192;2024-01-25T09:13:33;101692.50;;;7.00;76.93
46756;BME280;32506;52.826;-1.192;2024-01-25T09:15:59;101694.66;;;7.04;76.77
46756;BME280;32506;52.826;-1.192;2024-01-25T09:18:24;101689.03;;;7.08;76.83
46756;BME280;32506;52.826;-1.192;2024-01-25T09:20:51;101683.41;;;7.11;76.11
46756;BME280;32506;52.826;-1.192;2024-01-25T09:23:17;101684.56;;;7.16;76.52
46756;BME280;32506;52.826;-1.192;2024-01-25T09:25:44;101678.09;;;7.19;76.73
46756;BME280;32506;52.826;-1.192;2024-01-25T09:28:10;101674.94;;;7.23;76.93
46756;BME280;32506;52.826;-1.192;2024-01-25T09:30:40;101680.75;;;7.27;77.00
46756;BME280;32506;52.826;-1.192;2024-01-25T09:33:06;101664.47;;;7.30;76.38
46756;BME280;32506;52.826;-1.192;2024-01-25T09:35:32;101671.13;;;7.34;76.33
46756;BME280;32506;52.826;-1.192;2024-01-25T09:37:58;101668.16;;;7.37;76.06
46756;BME280;32506;52.826;-1.192;2024-01-25T09:40:24;101664.16;;;7.42;76.43
46756;BME280;32506;52.826;-1.192;2024-01-25T09:42:52;101664.66;;;7.45;76.76
46756;BME280;32506;52.826;-1.192;2024-01-25T09:45:18;101664.34;;;7.48;76.52
46756;BME280;32506;52.826;-1.192;2024-01-25T09:47:47;101661.00;;;7.54;77.23
46756;BME280;32506;52.826;-1.192;2024-01-25T09:50:13;101645.72;;;7.56;77.06
46756;BME280;32506;52.826;-1.192;2024-01-25T09:52:39;101654.19;;;7.60;76.83
46756;BME280;32506;52.826;-1.192;2024-01-25T09:55:11;101653.50;;;7.66;76.40
46756;BME280;32506;52.826;-1.192;2024-01-25T09:57:41;101643.38;;;7.70;77.13
46756;BME280;32506;52.826;-1.192;2024-01-25T10:00:11;101650.03;;;7.74;76.70
46756;BME280;32506;52.826;-1.192;2024-01-25T10:02:37;101660.16;;;7.79;76.46
46756;BME280;32506;52.826;-1.192;2024-01-25T10:05:03;101662.31;;;7.83;76.57
46756;BME280;32506;52.826;-1.192;2024-01-25T10:07:39;101656.31;;;7.89;77.13
46756;BME280;32506;52.826;-1.192;2024-01-25T10:10:05;101657.66;;;7.94;77.01
46756;BME280;32506;52.826;-1.192;2024-01-25T10:12:32;101656.31;;;7.98;76.58
46756;BME280;32506;52.826;-1.192;2024-01-25T10:14:58;101661.13;;;8.02;76.72
46756;BME280;32506;52.826;-1.192;2024-01-25T10:17:23;101658.97;;;8.06;77.02
46756;BME280;32506;52.826;-1.192;2024-01-25T10:19:49;101664.63;;;8.11;76.85
46756;BME280;32506;52.826;-1.192;2024-01-25T10:22:14;101661.44;;;8.16;77.03
46756;BME280;32506;52.826;-1.192;2024-01-25T10:24:40;101656.44;;;8.21;76.96
46756;BME280;32506;52.826;-1.192;2024-01-25T10:27:07;101654.28;;;8.25;76.86
46756;BME280;32506;52.826;-1.192;2024-01-25T10:29:36;101658.88;;;8.31;76.68
46756;BME280;32506;52.826;-1.192;2024-01-25T10:32:06;101672.53;;;8.36;76.73
46756;BME280;32506;52.826;-1.192;2024-01-25T10:34:35;101660.53;;;8.40;76.81
46756;BME280;32506;52.826;-1.192;2024-01-25T10:37:02;101659.19;;;8.44;76.57
46756;BME280;32506;52.826;-1.192;2024-01-25T10:39:29;101659.53;;;8.49;77.00
46756;BME280;32506;52.826;-1.192;2024-01-25T10:41:56;101662.50;;;8.54;77.35
46756;BME280;32506;52.826;-1.192;2024-01-25T10:44:21;101655.84;;;8.59;76.99
46756;BME280;32506;52.826;-1.192;2024-01-25T10:46:48;101661.47;;;8.64;77.62
46756;BME280;32506;52.826;-1.192;2024-01-25T10:49:14;101662.78;;;8.68;77.52
46756;BME280;32506;52.826;-1.192;2024-01-25T10:51:41;101667.59;;;8.72;77.44
46756;BME280;32506;52.826;-1.192;2024-01-25T10:54:11;101657.22;;;8.78;77.47
46756;BME280;32506;52.826;-1.192;2024-01-25T10:56:47;101654.06;;;8.82;77.48
46756;BME280;32506;52.826;-1.192;2024-01-25T10:59:13;101648.00;;;8.88;77.76
46756;BME280;32506;52.826;-1.192;2024-01-25T11:01:48;101643.00;;;8.94;77.65
46756;BME280;32506;52.826;-1.192;2024-01-25T11:04:18;101640.63;;;8.99;78.21
46756;BME280;32506;52.826;-1.192;2024-01-25T11:06:45;101653.41;;;9.03;78.40
46756;BME280;32506;52.826;-1.192;2024-01-25T11:09:16;101650.25;;;9.08;78.45
46756;BME280;32506;52.826;-1.192;2024-01-25T11:11:44;101646.84;;;9.14;78.13
46756;BME280;32506;52.826;-1.192;2024-01-25T11:14:14;101643.84;;;9.17;78.23
46756;BME280;32506;52.826;-1.192;2024-01-25T11:16:41;101632.44;;;9.23;78.15
46756;BME280;32506;52.826;-1.192;2024-01-25T11:19:19;101633.41;;;9.31;78.25
46756;BME280;32506;52.826;-1.192;2024-01-25T11:21:49;101626.34;;;9.38;78.13
46756;BME280;32506;52.826;-1.192;2024-01-25T11:24:17;101617.63;;;9.44;78.45
46756;BME280;32506;52.826;-1.192;2024-01-25T11:26:45;101613.03;;;9.53;78.03
46756;BME280;32506;52.826;-1.192;2024-01-25T11:29:18;101608.47;;;9.62;78.26
46756;BME280;32506;52.826;-1.192;2024-01-25T11:31:46;101608.56;;;9.68;78.58
46756;BME280;32506;52.826;-1.192;2024-01-25T11:34:13;101596.16;;;9.76;78.41
46756;BME280;32506;52.826;-1.192;2024-01-25T11:36:39;101597.25;;;9.81;78.09
46756;BME280;32506;52.826;-1.192;2024-01-25T11:39:05;101596.34;;;9.89;77.84
46756;BME280;32506;52.826;-1.192;2024-01-25T11:41:32;101595.63;;;9.95;78.15
46756;BME280;32506;52.826;-1.192;2024-01-25T11:43:58;101588.53;;;10.02;77.73
46756;BME280;32506;52.826;-1.192;2024-01-25T11:46:24;101581.59;;;10.08;77.68
46756;BME280;32506;52.826;-1.192;2024-01-25T11:48:50;101582.69;;;10.14;77.77
46756;BME280;32506;52.826;-1.192;2024-01-25T11:51:15;101580.97;;;10.21;77.41
46756;BME280;32506;52.826;-1.192;2024-01-25T11:53:41;101566.84;;;10.27;77.22
46756;BME280;32506;52.826;-1.192;2024-01-25T11:56:09;101568.63;;;10.35;77.28
46756;BME280;32506;52.826;-1.192;2024-01-25T11:58:37;101563.16;;;10.43;77.23
46756;BME280;32506;52.826;-1.192;2024-01-25T12:01:03;101554.66;;;10.54;77.17
46756;BME280;32506;52.826;-1.192;2024-01-25T12:03:33;101549.28;;;10.69;76.87
46756;BME280;32506;52.826;-1.192;2024-01-25T12:05:59;101543.13;;;10.90;76.48
46756;BME280;32506;52.826;-1.192;2024-01-25T12:08:25;101526.41;;;11.10;75.70
46756;BME280;32506;52.826;-1.192;2024-01-25T12:11:02;101528.63;;;11.28;74.93
46756;BME280;32506;52.826;-1.192;2024-01-25T12:13:28;101525.41;;;11.39;74.64
46756;BME280;32506;52.826;-1.192;2024-01-25T12:15:57;101521.09;;;11.45;74.10
46756;BME280;32506;52.826;-1.192;2024-01-25T12:18:22;101507.34;;;11.48;73.76
46756;BME280;32506;52.826;-1.192;2024-01-25T12:20:48;101520.31;;;11.51;73.72
46756;BME280;32506;52.826;-1.192;2024-01-25T12:23:13;101501.38;;;11.53;73.79
46756;BME280;32506;52.826;-1.192;2024-01-25T12:25:39;101510.06;;;11.55;73.61
46756;BME280;32506;52.826;-1.192;2024-01-25T12:28:06;101491.94;;;11.57;73.35
46756;BME280;32506;52.826;-1.192;2024-01-25T12:30:31;101497.94;;;11.59;73.58
46756;BME280;32506;52.826;-1.192;2024-01-25T12:32:57;101485.38;;;11.59;73.47
46756;BME280;32506;52.826;-1.192;2024-01-25T12:35:22;101493.84;;;11.63;73.58
46756;BME280;32506;52.826;-1.192;2024-01-25T12:37:47;101489.94;;;11.66;73.46
46756;BME280;32506;52.826;-1.192;2024-01-25T12:40:13;101487.88;;;11.68;73.09
46756;BME280;32506;52.826;-1.192;2024-01-25T12:42:39;101488.75;;;11.75;73.11
46756;BME280;32506;52.826;-1.192;2024-01-25T12:45:04;101491.47;;;11.82;72.43